createdAt,value
2018-04-28T00:00:18.817Z,17.61
2018-04-28T00:00:50.046Z,17.58
2018-04-28T00:01:21.312Z,17.56
2018-04-28T00:01:52.570Z,17.57
2018-04-28T00:02:23.784Z,17.62
2018-04-28T00:02:55.064Z,17.65
2018-04-28T00:03:26.292Z,17.67
2018-04-28T00:03:57.517Z,17.65
2018-04-28T00:04:28.726Z,17.64
2018-04-28T00:04:59.940Z,17.67
2018-04-28T00:05:31.144Z,17.68
2018-04-28T00:06:02.353Z,17.70
2018-04-28T00:06:33.567Z,17.67
2018-04-28T00:07:04.814Z,17.68
2018-04-28T00:07:36.012Z,17.69
2018-04-28T00:08:07.240Z,17.69
2018-04-28T00:08:38.509Z,17.71
2018-04-28T00:09:09.719Z,17.69
2018-04-28T00:09:40.934Z,17.67
2018-04-28T00:10:12.166Z,17.64
2018-04-28T00:10:43.374Z,17.62
2018-04-28T00:11:14.583Z,17.60
2018-04-28T00:11:45.827Z,17.59
2018-04-28T00:12:17.023Z,17.56
2018-04-28T00:12:48.284Z,17.53
2018-04-28T00:13:19.492Z,17.48
2018-04-28T00:13:50.711Z,17.45
2018-04-28T00:14:21.917Z,17.40
2018-04-28T00:14:53.118Z,17.39
2018-04-28T00:15:24.303Z,17.38
2018-04-28T00:15:55.541Z,17.38
2018-04-28T00:16:26.771Z,17.35
2018-04-28T00:16:58.002Z,17.32
2018-04-28T00:17:29.218Z,17.29
2018-04-28T00:18:00.487Z,17.30
2018-04-28T00:18:31.698Z,17.31
2018-04-28T00:19:02.914Z,17.31
2018-04-28T00:19:34.122Z,17.30
2018-04-28T00:20:05.465Z,17.31
2018-04-28T00:20:36.686Z,17.34
2018-04-28T00:21:07.952Z,17.34
2018-04-28T00:21:39.165Z,17.33
2018-04-28T00:22:10.372Z,17.32
2018-04-28T00:22:41.613Z,17.33
2018-04-28T00:23:12.832Z,17.24
2018-04-28T00:23:44.041Z,17.26
2018-04-28T00:24:15.248Z,17.24
2018-04-28T00:24:46.461Z,17.24
2018-04-28T00:25:17.665Z,17.25
2018-04-28T00:25:48.872Z,17.21
2018-04-28T00:26:20.081Z,17.23
2018-04-28T00:26:51.282Z,17.26
2018-04-28T00:27:22.537Z,17.27
2018-04-28T00:27:53.734Z,17.31
2018-04-28T00:28:24.973Z,17.29
2018-04-28T00:28:56.209Z,17.26
2018-04-28T00:29:27.424Z,17.27
2018-04-28T00:29:58.630Z,17.28
2018-04-28T00:30:29.859Z,17.29
2018-04-28T00:31:01.065Z,17.28
2018-04-28T00:31:32.271Z,17.27
2018-04-28T00:32:03.475Z,17.27
2018-04-28T00:32:34.741Z,17.24
2018-04-28T00:33:05.952Z,17.25
2018-04-28T00:33:37.175Z,17.23
2018-04-28T00:34:08.386Z,17.23
2018-04-28T00:34:39.590Z,17.23
2018-04-28T00:35:10.852Z,17.24
2018-04-28T00:35:42.067Z,17.22
2018-04-28T00:36:13.286Z,17.25
2018-04-28T00:36:44.504Z,17.23
2018-04-28T00:37:15.719Z,17.27
2018-04-28T00:37:46.983Z,17.27
2018-04-28T00:38:18.190Z,17.29
2018-04-28T00:38:49.400Z,17.26
2018-04-28T00:39:20.619Z,17.25
2018-04-28T00:39:51.835Z,17.25
2018-04-28T00:40:23.053Z,17.25
2018-04-28T00:40:54.261Z,17.24
2018-04-28T00:41:25.480Z,17.19
2018-04-28T00:41:56.699Z,17.22
2018-04-28T00:42:28.232Z,17.22
2018-04-28T00:42:59.486Z,17.22
2018-04-28T00:43:30.696Z,17.19
2018-04-28T00:44:01.904Z,17.18
2018-04-28T00:44:33.118Z,17.19
2018-04-28T00:45:04.350Z,17.18
2018-04-28T00:45:35.561Z,17.17
2018-04-28T00:46:06.780Z,17.17
2018-04-28T00:46:37.983Z,17.16
2018-04-28T00:47:09.194Z,17.14
2018-04-28T00:47:40.396Z,17.13
2018-04-28T00:48:11.645Z,17.13
2018-04-28T00:48:42.864Z,17.14
2018-04-28T00:49:14.075Z,17.16
2018-04-28T00:49:45.336Z,17.16
2018-04-28T00:50:16.568Z,17.16
2018-04-28T00:50:47.785Z,17.14
2018-04-28T00:51:19.098Z,17.14
2018-04-28T00:51:50.284Z,17.13
2018-04-28T00:52:21.513Z,17.13
2018-04-28T00:52:52.765Z,17.15
2018-04-28T00:53:23.982Z,17.16
2018-04-28T00:53:55.193Z,17.16
2018-04-28T00:54:26.400Z,17.17
2018-04-28T00:54:57.664Z,17.19
2018-04-28T00:55:28.882Z,17.18
2018-04-28T00:56:00.095Z,17.20
2018-04-28T00:56:31.324Z,17.22
2018-04-28T00:57:02.589Z,17.29
2018-04-28T00:57:33.814Z,17.31
2018-04-28T00:58:05.029Z,17.29
2018-04-28T00:58:36.243Z,17.27
2018-04-28T00:59:07.462Z,17.27
2018-04-28T00:59:38.672Z,17.23
2018-04-28T01:00:09.887Z,17.22
2018-04-28T01:00:41.111Z,17.18
2018-04-28T01:01:12.321Z,17.19
2018-04-28T01:01:43.540Z,17.21
2018-04-28T01:02:14.773Z,17.26
2018-04-28T01:02:46.010Z,17.27
2018-04-28T01:03:17.237Z,17.26
2018-04-28T01:03:48.452Z,17.20
2018-04-28T01:04:19.663Z,17.19
2018-04-28T01:04:50.919Z,17.13
2018-04-28T01:05:22.129Z,17.12
2018-04-28T01:05:53.356Z,17.09
2018-04-28T01:06:24.574Z,17.07
2018-04-28T01:06:55.796Z,17.05
2018-04-28T01:07:27.005Z,17.09
2018-04-28T01:07:58.227Z,17.12
2018-04-28T01:08:29.454Z,17.12
2018-04-28T01:09:00.671Z,17.13
2018-04-28T01:09:31.913Z,17.14
2018-04-28T01:10:03.181Z,17.15
2018-04-28T01:10:34.394Z,17.10
2018-04-28T01:11:05.608Z,17.14
2018-04-28T01:11:36.818Z,17.13
2018-04-28T01:12:08.023Z,17.12
2018-04-28T01:12:39.273Z,17.12
2018-04-28T01:13:10.489Z,17.14
2018-04-28T01:13:41.705Z,17.15
2018-04-28T01:14:12.921Z,17.12
2018-04-28T01:14:44.136Z,17.14
2018-04-28T01:15:15.366Z,17.15
2018-04-28T01:15:46.595Z,17.15
2018-04-28T01:16:17.800Z,17.19
2018-04-28T01:16:49.018Z,17.21
2018-04-28T01:17:20.248Z,17.20
2018-04-28T01:17:51.497Z,17.21
2018-04-28T01:18:22.710Z,17.22
2018-04-28T01:18:53.934Z,17.26
2018-04-28T01:19:25.211Z,17.27
2018-04-28T01:19:56.408Z,17.32
2018-04-28T01:20:29.174Z,17.32
2018-04-28T01:21:00.375Z,17.35
2018-04-28T01:21:31.590Z,17.38
2018-04-28T01:22:02.796Z,17.38
2018-04-28T01:22:34.021Z,17.35
2018-04-28T01:23:05.256Z,17.33
2018-04-28T01:23:36.466Z,17.33
2018-04-28T01:24:07.721Z,17.33
2018-04-28T01:24:38.929Z,17.30
2018-04-28T01:25:10.134Z,17.33
2018-04-28T01:25:41.354Z,17.29
2018-04-28T01:26:12.563Z,17.26
2018-04-28T01:26:43.777Z,17.22
2018-04-28T01:27:14.989Z,17.21
2018-04-28T01:27:46.244Z,17.22
2018-04-28T01:28:17.464Z,17.22
2018-04-28T01:28:48.685Z,17.22
2018-04-28T01:29:19.895Z,17.19
2018-04-28T01:29:51.108Z,17.18
2018-04-28T01:30:22.348Z,17.16
2018-04-28T01:30:53.569Z,17.14
2018-04-28T01:31:24.768Z,17.10
2018-04-28T01:31:56.002Z,17.07
2018-04-28T01:32:27.253Z,17.01
2018-04-28T01:32:58.472Z,17.02
2018-04-28T01:33:29.701Z,17.01
2018-04-28T01:34:00.912Z,16.99
2018-04-28T01:34:32.117Z,16.99
2018-04-28T01:35:03.377Z,16.98
2018-04-28T01:35:34.576Z,16.98
2018-04-28T01:36:05.790Z,17.00
2018-04-28T01:36:36.997Z,17.01
2018-04-28T01:37:08.211Z,16.98
2018-04-28T01:37:39.428Z,16.97
2018-04-28T01:38:10.646Z,16.94
2018-04-28T01:38:41.839Z,16.97
2018-04-28T01:39:13.112Z,16.99
2018-04-28T01:39:44.387Z,17.04
2018-04-28T01:40:15.596Z,17.05
2018-04-28T01:40:46.801Z,17.09
2018-04-28T01:41:18.013Z,17.11
2018-04-28T01:41:49.265Z,17.12
2018-04-28T01:42:20.496Z,17.13
2018-04-28T01:42:51.717Z,17.10
2018-04-28T01:43:22.945Z,17.12
2018-04-28T01:43:54.163Z,17.15
2018-04-28T01:44:25.375Z,17.18
2018-04-28T01:44:56.621Z,17.16
2018-04-28T01:45:27.848Z,17.15
2018-04-28T01:45:59.070Z,17.16
2018-04-28T01:46:30.275Z,17.15
2018-04-28T01:47:01.502Z,17.14
2018-04-28T01:47:32.722Z,17.13
2018-04-28T01:48:04.071Z,17.10
2018-04-28T01:48:35.258Z,17.13
2018-04-28T01:49:06.481Z,17.14
2018-04-28T01:49:37.730Z,17.14
2018-04-28T01:50:08.987Z,17.15
2018-04-28T01:50:40.197Z,17.14
2018-04-28T01:51:11.405Z,17.13
2018-04-28T01:51:42.616Z,17.13
2018-04-28T01:52:13.845Z,17.13
2018-04-28T01:52:45.052Z,17.14
2018-04-28T01:53:16.270Z,17.11
2018-04-28T01:53:47.494Z,17.13
2018-04-28T01:54:18.707Z,17.13
2018-04-28T01:54:49.922Z,17.12
2018-04-28T01:55:21.179Z,17.17
2018-04-28T01:55:52.383Z,17.19
2018-04-28T01:56:23.601Z,17.20
2018-04-28T01:56:54.801Z,17.20
2018-04-28T01:57:26.013Z,17.17
2018-04-28T01:57:57.216Z,17.18
2018-04-28T01:58:28.807Z,17.20
2018-04-28T01:59:00.018Z,17.17
2018-04-28T01:59:31.229Z,17.19
2018-04-28T02:00:02.977Z,17.19
2018-04-28T02:00:34.221Z,17.19
2018-04-28T02:01:05.433Z,17.22
2018-04-28T02:01:36.660Z,17.22
2018-04-28T02:02:07.920Z,17.24
2018-04-28T02:02:39.138Z,17.27
2018-04-28T02:03:10.341Z,17.28
2018-04-28T02:03:41.549Z,17.26
2018-04-28T02:04:12.757Z,17.28
2018-04-28T02:04:43.962Z,17.33
2018-04-28T02:05:15.165Z,17.36
2018-04-28T02:05:46.370Z,17.40
2018-04-28T02:06:17.581Z,17.39
2018-04-28T02:06:48.821Z,17.41
2018-04-28T02:07:20.065Z,17.45
2018-04-28T02:07:51.267Z,17.45
2018-04-28T02:08:22.481Z,17.43
2018-04-28T02:08:53.688Z,17.42
2018-04-28T02:09:24.921Z,17.43
2018-04-28T02:09:56.119Z,17.44
2018-04-28T02:10:27.321Z,17.44
2018-04-28T02:10:58.531Z,17.46
2018-04-28T02:11:29.746Z,17.48
2018-04-28T02:12:01.012Z,17.48
2018-04-28T02:12:32.264Z,17.48
2018-04-28T02:13:03.461Z,17.42
2018-04-28T02:13:34.676Z,17.42
2018-04-28T02:14:05.881Z,17.41
2018-04-28T02:14:37.112Z,17.42
2018-04-28T02:15:08.311Z,17.43
2018-04-28T02:15:39.525Z,17.43
2018-04-28T02:16:10.741Z,17.46
2018-04-28T02:16:41.949Z,17.47
2018-04-28T02:17:13.204Z,17.49
2018-04-28T02:17:44.421Z,17.49
2018-04-28T02:18:15.625Z,17.50
2018-04-28T02:18:46.838Z,17.54
2018-04-28T02:19:18.027Z,17.55
2018-04-28T02:19:49.233Z,17.55
2018-04-28T02:20:20.446Z,17.56
2018-04-28T02:20:51.657Z,17.57
2018-04-28T02:21:22.926Z,17.57
2018-04-28T02:21:54.140Z,17.54
2018-04-28T02:22:25.395Z,17.54
2018-04-28T02:22:56.599Z,17.57
2018-04-28T02:23:27.818Z,17.60
2018-04-28T02:23:59.020Z,17.63
2018-04-28T02:24:30.220Z,17.64
2018-04-28T02:25:01.435Z,17.66
2018-04-28T02:25:32.644Z,17.66
2018-04-28T02:26:03.848Z,17.66
2018-04-28T02:26:35.057Z,17.65
2018-04-28T02:27:06.267Z,17.64
2018-04-28T02:27:37.513Z,17.65
2018-04-28T02:28:08.703Z,17.65
2018-04-28T02:28:39.913Z,17.64
2018-04-28T02:29:11.116Z,17.66
2018-04-28T02:29:42.329Z,17.66
2018-04-28T02:30:13.544Z,17.68
2018-04-28T02:30:44.757Z,17.71
2018-04-28T02:31:15.985Z,17.73
2018-04-28T02:31:47.208Z,17.73
2018-04-28T02:32:18.423Z,17.76
2018-04-28T02:32:49.662Z,17.77
2018-04-28T02:33:20.865Z,17.73
2018-04-28T02:33:52.078Z,17.75
2018-04-28T02:34:23.294Z,17.77
2018-04-28T02:34:54.511Z,17.42
2018-04-28T02:35:25.750Z,17.79
2018-04-28T02:35:57.036Z,17.78
2018-04-28T02:36:28.217Z,17.79
2018-04-28T02:36:59.430Z,17.82
2018-04-28T02:37:30.667Z,17.79
2018-04-28T02:38:01.917Z,17.81
2018-04-28T02:38:33.204Z,17.80
2018-04-28T02:39:04.396Z,17.81
2018-04-28T02:39:35.613Z,17.82
2018-04-28T02:40:06.825Z,17.82
2018-04-28T02:40:38.036Z,17.80
2018-04-28T02:41:09.257Z,17.79
2018-04-28T02:41:40.496Z,17.76
2018-04-28T02:42:11.705Z,17.74
2018-04-28T02:42:42.915Z,17.77
2018-04-28T02:43:14.124Z,17.78
2018-04-28T02:43:45.325Z,17.76
2018-04-28T02:44:16.543Z,17.76
2018-04-28T02:44:47.760Z,17.75
2018-04-28T02:45:18.980Z,17.75
2018-04-28T02:45:50.234Z,17.76
2018-04-28T02:46:21.449Z,17.77
2018-04-28T02:46:52.660Z,17.76
2018-04-28T02:47:23.906Z,17.72
2018-04-28T02:47:55.128Z,17.75
2018-04-28T02:48:26.349Z,17.76
2018-04-28T02:48:57.542Z,17.81
2018-04-28T02:49:28.738Z,17.82
2018-04-28T02:49:59.999Z,17.80
2018-04-28T02:50:31.195Z,17.80
2018-04-28T02:51:02.507Z,17.81
2018-04-28T02:51:33.690Z,17.82
2018-04-28T02:52:04.892Z,17.88
2018-04-28T02:52:36.117Z,17.87
2018-04-28T02:53:07.391Z,17.86
2018-04-28T02:53:38.621Z,17.82
2018-04-28T02:54:09.842Z,17.81
2018-04-28T02:54:41.052Z,17.82
2018-04-28T02:55:12.280Z,17.86
2018-04-28T02:55:43.504Z,17.85
2018-04-28T02:56:14.721Z,17.86
2018-04-28T02:56:45.933Z,17.88
2018-04-28T02:57:17.142Z,17.90
2018-04-28T02:57:48.348Z,17.91
2018-04-28T02:58:19.595Z,17.91
2018-04-28T02:58:50.804Z,17.91
2018-04-28T02:59:22.028Z,17.90
2018-04-28T02:59:53.218Z,17.86
2018-04-28T03:00:24.424Z,17.84
2018-04-28T03:00:55.635Z,17.89
2018-04-28T03:01:26.845Z,17.92
2018-04-28T03:01:58.057Z,17.95
2018-04-28T03:02:29.300Z,17.96
2018-04-28T03:03:00.505Z,17.95
2018-04-28T03:03:31.779Z,17.94
2018-04-28T03:04:02.990Z,17.95
2018-04-28T03:04:34.208Z,17.93
2018-04-28T03:05:05.459Z,17.94
2018-04-28T03:05:36.673Z,17.98
2018-04-28T03:06:07.883Z,18.01
2018-04-28T03:06:39.101Z,17.99
2018-04-28T03:07:10.328Z,18.00
2018-04-28T03:07:41.546Z,18.04
2018-04-28T03:08:12.818Z,18.04
2018-04-28T03:08:44.061Z,18.01
2018-04-28T03:09:15.324Z,17.98
2018-04-28T03:09:46.583Z,17.97
2018-04-28T03:10:17.793Z,17.97
2018-04-28T03:10:49.002Z,17.97
2018-04-28T03:11:20.212Z,17.95
2018-04-28T03:11:51.458Z,17.94
2018-04-28T03:12:22.679Z,17.92
2018-04-28T03:12:53.891Z,17.92
2018-04-28T03:13:25.097Z,17.96
2018-04-28T03:13:56.300Z,17.93
2018-04-28T03:14:27.543Z,17.93
2018-04-28T03:14:58.797Z,17.95
2018-04-28T03:15:30.009Z,17.95
2018-04-28T03:16:01.218Z,17.97
2018-04-28T03:16:32.427Z,18.02
2018-04-28T03:17:03.641Z,18.02
2018-04-28T03:17:34.854Z,18.02
2018-04-28T03:18:06.077Z,18.03
2018-04-28T03:18:37.285Z,18.04
2018-04-28T03:19:08.497Z,18.04
2018-04-28T03:19:39.713Z,18.05
2018-04-28T03:20:10.948Z,18.08
2018-04-28T03:20:42.160Z,18.11
2018-04-28T03:21:13.361Z,18.12
2018-04-28T03:21:44.569Z,18.08
2018-04-28T03:22:15.783Z,18.06
2018-04-28T03:22:47.075Z,18.05
2018-04-28T03:23:18.323Z,18.04
2018-04-28T03:23:49.523Z,18.03
2018-04-28T03:24:20.776Z,18.02
2018-04-28T03:24:51.986Z,18.01
2018-04-28T03:25:23.190Z,18.01
2018-04-28T03:25:54.409Z,18.01
2018-04-28T03:26:25.612Z,18.01
2018-04-28T03:26:56.862Z,18.00
2018-04-28T03:27:28.098Z,17.98
2018-04-28T03:27:59.329Z,17.94
2018-04-28T03:28:30.539Z,17.94
2018-04-28T03:29:01.769Z,17.93
2018-04-28T03:29:33.017Z,17.92
2018-04-28T03:30:04.229Z,17.91
2018-04-28T03:30:35.437Z,17.90
2018-04-28T03:31:06.671Z,17.88
2018-04-28T03:31:37.882Z,17.86
2018-04-28T03:32:09.136Z,17.85
2018-04-28T03:32:40.341Z,17.84
2018-04-28T03:33:11.562Z,17.84
2018-04-28T03:33:42.781Z,17.85
2018-04-28T03:34:13.985Z,17.87
2018-04-28T03:34:45.201Z,17.86
2018-04-28T03:35:16.401Z,17.88
2018-04-28T03:35:47.628Z,17.89
2018-04-28T03:36:18.837Z,17.92
2018-04-28T03:36:50.057Z,17.93
2018-04-28T03:37:21.310Z,17.93
2018-04-28T03:37:52.518Z,17.94
2018-04-28T03:38:23.742Z,17.94
2018-04-28T03:38:54.952Z,17.94
2018-04-28T03:39:26.160Z,17.96
2018-04-28T03:39:57.369Z,18.02
2018-04-28T03:40:28.577Z,18.06
2018-04-28T03:40:59.784Z,18.11
2018-04-28T03:41:31.009Z,18.17
2018-04-28T03:42:02.224Z,18.18
2018-04-28T03:42:33.504Z,18.20
2018-04-28T03:43:04.721Z,18.22
2018-04-28T03:43:36.018Z,18.17
2018-04-28T03:44:07.240Z,18.13
2018-04-28T03:44:38.463Z,18.14
2018-04-28T03:45:09.669Z,18.07
2018-04-28T03:45:40.861Z,18.04
2018-04-28T03:46:12.070Z,18.04
2018-04-28T03:46:43.293Z,18.06
2018-04-28T03:47:14.492Z,18.09
2018-04-28T03:47:45.713Z,18.14
2018-04-28T03:48:16.941Z,18.19
2018-04-28T03:48:48.185Z,18.24
2018-04-28T03:49:19.398Z,18.29
2018-04-28T03:49:50.601Z,18.32
2018-04-28T03:50:21.813Z,18.36
2018-04-28T03:50:53.021Z,18.35
2018-04-28T03:51:24.234Z,18.31
2018-04-28T03:51:55.463Z,18.27
2018-04-28T03:52:26.660Z,18.22
2018-04-28T03:52:57.902Z,18.20
2018-04-28T03:53:29.171Z,18.17
2018-04-28T03:54:00.428Z,18.23
2018-04-28T03:54:31.637Z,18.24
2018-04-28T03:55:02.852Z,18.24
2018-04-28T03:55:34.058Z,18.23
2018-04-28T03:56:05.290Z,18.22
2018-04-28T03:56:36.505Z,18.21
2018-04-28T03:57:07.727Z,18.19
2018-04-28T03:57:38.945Z,18.20
2018-04-28T03:58:10.152Z,18.20
2018-04-28T03:58:41.363Z,18.18
2018-04-28T03:59:12.615Z,18.17
2018-04-28T03:59:43.841Z,18.15
2018-04-28T04:00:15.057Z,18.12
2018-04-28T04:00:46.281Z,18.11
2018-04-28T04:01:17.489Z,18.08
2018-04-28T04:01:48.697Z,18.03
2018-04-28T04:02:19.909Z,17.98
2018-04-28T04:02:51.090Z,17.97
2018-04-28T04:03:22.292Z,17.98
2018-04-28T04:03:53.520Z,18.00
2018-04-28T04:04:24.834Z,18.01
2018-04-28T04:04:56.042Z,18.01
2018-04-28T04:05:27.249Z,18.02
2018-04-28T04:05:58.457Z,18.03
2018-04-28T04:06:30.243Z,18.05
2018-04-28T04:07:01.508Z,18.06
2018-04-28T04:07:32.713Z,18.08
2018-04-28T04:08:03.931Z,18.11
2018-04-28T04:08:35.147Z,18.11
2018-04-28T04:09:06.362Z,18.11
2018-04-28T04:09:37.621Z,18.12
2018-04-28T04:10:08.832Z,18.15
2018-04-28T04:10:40.037Z,18.18
2018-04-28T04:11:11.255Z,18.19
2018-04-28T04:11:42.480Z,18.22
2018-04-28T04:12:13.688Z,18.20
2018-04-28T04:12:44.889Z,18.20
2018-04-28T04:13:16.144Z,18.19
2018-04-28T04:13:47.354Z,18.18
2018-04-28T04:14:18.566Z,18.19
2018-04-28T04:14:49.812Z,18.19
2018-04-28T04:15:21.033Z,18.18
2018-04-28T04:15:52.256Z,18.19
2018-04-28T04:16:23.465Z,18.20
2018-04-28T04:16:54.669Z,18.20
2018-04-28T04:17:25.880Z,18.21
2018-04-28T04:17:57.092Z,18.26
2018-04-28T04:18:28.300Z,18.28
2018-04-28T04:18:59.515Z,18.28
2018-04-28T04:19:30.785Z,18.26
2018-04-28T04:20:02.129Z,18.28
2018-04-28T04:20:33.358Z,18.27
2018-04-28T04:21:04.636Z,18.26
2018-04-28T04:21:35.834Z,18.27
2018-04-28T04:22:07.078Z,18.27
2018-04-28T04:22:38.303Z,18.26
2018-04-28T04:23:09.512Z,18.22
2018-04-28T04:23:40.748Z,18.20
2018-04-28T04:24:11.950Z,18.24
2018-04-28T04:24:43.175Z,18.29
2018-04-28T04:25:14.395Z,18.33
2018-04-28T04:25:45.602Z,18.36
2018-04-28T04:26:16.848Z,18.37
2018-04-28T04:26:48.061Z,18.39
2018-04-28T04:27:19.269Z,18.39
2018-04-28T04:27:50.489Z,18.39
2018-04-28T04:28:21.741Z,18.37
2018-04-28T04:28:52.961Z,18.34
2018-04-28T04:29:24.173Z,18.30
2018-04-28T04:29:55.394Z,18.30
2018-04-28T04:30:26.604Z,18.32
2018-04-28T04:30:57.816Z,18.32
2018-04-28T04:31:29.025Z,18.34
2018-04-28T04:32:00.371Z,18.33
2018-04-28T04:32:31.536Z,18.33
2018-04-28T04:33:02.751Z,18.29
2018-04-28T04:33:33.989Z,18.28
2018-04-28T04:34:05.206Z,18.32
2018-04-28T04:34:36.418Z,18.36
2018-04-28T04:35:07.617Z,18.39
2018-04-28T04:35:38.835Z,18.42
2018-04-28T04:36:10.041Z,18.44
2018-04-28T04:36:41.245Z,18.48
2018-04-28T04:37:12.491Z,18.50
2018-04-28T04:37:43.719Z,18.49
2018-04-28T04:38:14.956Z,18.51
2018-04-28T04:38:46.168Z,18.54
2018-04-28T04:39:17.386Z,18.54
2018-04-28T04:39:48.608Z,18.51
2018-04-28T04:40:19.824Z,18.52
2018-04-28T04:40:51.033Z,18.56
2018-04-28T04:41:22.244Z,18.57
2018-04-28T04:41:53.497Z,18.57
2018-04-28T04:42:24.717Z,18.55
2018-04-28T04:42:56.041Z,18.55
2018-04-28T04:43:27.245Z,18.56
2018-04-28T04:43:58.453Z,18.55
2018-04-28T04:44:29.679Z,18.57
2018-04-28T04:45:00.888Z,18.59
2018-04-28T04:45:32.097Z,18.61
2018-04-28T04:46:03.306Z,18.64
2018-04-28T04:46:34.529Z,18.67
2018-04-28T04:47:05.741Z,18.67
2018-04-28T04:47:36.963Z,18.67
2018-04-28T04:48:08.228Z,18.66
2018-04-28T04:48:39.442Z,18.68
2018-04-28T04:49:10.666Z,18.71
2018-04-28T04:49:41.886Z,18.71
2018-04-28T04:50:13.089Z,18.73
2018-04-28T04:50:44.298Z,18.70
2018-04-28T04:51:15.522Z,18.70
2018-04-28T04:51:46.734Z,18.71
2018-04-28T04:52:17.941Z,18.71
2018-04-28T04:52:49.153Z,18.71
2018-04-28T04:53:21.047Z,18.76
2018-04-28T04:53:52.270Z,18.78
2018-04-28T04:54:23.485Z,18.83
2018-04-28T04:54:54.688Z,18.88
2018-04-28T04:55:25.911Z,18.92
2018-04-28T04:55:57.186Z,18.92
2018-04-28T04:56:28.431Z,18.94
2018-04-28T04:56:59.658Z,18.93
2018-04-28T04:57:30.889Z,18.89
2018-04-28T04:58:02.087Z,18.86
2018-04-28T04:58:33.299Z,18.82
2018-04-28T04:59:04.523Z,18.76
2018-04-28T04:59:35.740Z,18.70
2018-04-28T05:00:06.950Z,18.69
2018-04-28T05:00:38.185Z,18.72
2018-04-28T05:01:09.437Z,18.74
2018-04-28T05:01:40.649Z,18.73
2018-04-28T05:02:11.893Z,18.75
2018-04-28T05:02:43.104Z,18.79
2018-04-28T05:03:14.309Z,18.80
2018-04-28T05:03:45.557Z,18.80
2018-04-28T05:04:16.765Z,18.84
2018-04-28T05:04:47.979Z,18.86
2018-04-28T05:05:19.189Z,18.83
2018-04-28T05:05:50.402Z,18.80
2018-04-28T05:06:21.653Z,18.77
2018-04-28T05:06:52.923Z,18.78
2018-04-28T05:07:24.151Z,18.78
2018-04-28T05:07:55.364Z,18.77
2018-04-28T05:08:26.598Z,18.78
2018-04-28T05:08:57.832Z,18.81
2018-04-28T05:09:29.046Z,18.82
2018-04-28T05:10:00.270Z,18.84
2018-04-28T05:10:31.532Z,18.87
2018-04-28T05:11:02.754Z,18.91
2018-04-28T05:11:34.001Z,18.92
2018-04-28T05:12:05.224Z,18.94
2018-04-28T05:12:36.433Z,18.94
2018-04-28T05:13:07.674Z,18.94
2018-04-28T05:13:38.883Z,18.95
2018-04-28T05:14:10.088Z,18.94
2018-04-28T05:14:41.293Z,18.91
2018-04-28T05:15:12.503Z,18.89
2018-04-28T05:15:43.769Z,18.90
2018-04-28T05:16:14.988Z,18.92
2018-04-28T05:16:46.207Z,18.98
2018-04-28T05:17:17.413Z,19.01
2018-04-28T05:17:48.646Z,19.04
2018-04-28T05:18:19.862Z,19.04
2018-04-28T05:18:51.068Z,19.02
2018-04-28T05:19:22.284Z,19.05
2018-04-28T05:19:53.492Z,19.02
2018-04-28T05:20:25.338Z,19.00
2018-04-28T05:20:56.597Z,18.95
2018-04-28T05:21:27.808Z,18.92
2018-04-28T05:21:59.085Z,18.92
2018-04-28T05:22:30.304Z,18.93
2018-04-28T05:23:01.514Z,18.94
2018-04-28T05:23:32.737Z,18.98
2018-04-28T05:24:03.956Z,19.00
2018-04-28T05:24:35.170Z,19.05
2018-04-28T05:25:06.373Z,19.09
2018-04-28T05:25:37.576Z,19.15
2018-04-28T05:26:08.824Z,19.20
2018-04-28T05:26:40.039Z,19.25
2018-04-28T05:27:11.287Z,19.32
2018-04-28T05:27:42.539Z,19.33
2018-04-28T05:28:13.760Z,19.34
2018-04-28T05:28:44.981Z,19.35
2018-04-28T05:29:16.229Z,19.36
2018-04-28T05:29:47.479Z,19.34
2018-04-28T05:30:18.724Z,19.34
2018-04-28T05:30:49.950Z,19.36
2018-04-28T05:31:21.185Z,19.39
2018-04-28T05:31:52.413Z,19.39
2018-04-28T05:32:23.633Z,19.43
2018-04-28T05:32:54.912Z,19.43
2018-04-28T05:33:26.192Z,19.44
2018-04-28T05:33:57.412Z,19.38
2018-04-28T05:34:28.665Z,19.32
2018-04-28T05:34:59.885Z,19.29
2018-04-28T05:35:31.129Z,19.26
2018-04-28T05:36:02.435Z,19.26
2018-04-28T05:36:33.614Z,19.33
2018-04-28T05:37:04.832Z,19.36
2018-04-28T05:37:36.102Z,19.38
2018-04-28T05:38:07.418Z,19.25
2018-04-28T05:38:38.640Z,19.25
2018-04-28T05:39:09.922Z,19.27
2018-04-28T05:39:41.190Z,19.30
2018-04-28T05:40:12.428Z,19.35
2018-04-28T05:40:43.649Z,19.40
2018-04-28T05:41:14.857Z,19.48
2018-04-28T05:41:46.082Z,19.48
2018-04-28T05:42:17.311Z,19.52
2018-04-28T05:42:48.533Z,19.53
2018-04-28T05:43:19.826Z,19.56
2018-04-28T05:43:51.062Z,19.57
2018-04-28T05:44:22.276Z,19.61
2018-04-28T05:44:53.532Z,19.62
2018-04-28T05:45:24.741Z,19.61
2018-04-28T05:45:56.000Z,19.62
2018-04-28T05:46:27.220Z,19.65
2018-04-28T05:46:58.442Z,19.64
2018-04-28T05:47:29.657Z,19.68
2018-04-28T05:48:00.871Z,19.71
2018-04-28T05:48:32.081Z,19.70
2018-04-28T05:49:03.307Z,19.71
2018-04-28T05:49:34.530Z,19.70
2018-04-28T05:50:05.786Z,19.72
2018-04-28T05:50:36.999Z,19.72
2018-04-28T05:51:08.205Z,19.71
2018-04-28T05:51:39.415Z,19.67
2018-04-28T05:52:10.633Z,19.59
2018-04-28T05:52:41.876Z,19.59
2018-04-28T05:53:13.105Z,19.60
2018-04-28T05:53:44.338Z,19.47
2018-04-28T05:54:15.558Z,19.47
2018-04-28T05:54:46.777Z,19.49
2018-04-28T05:55:17.984Z,19.51
2018-04-28T05:55:49.198Z,19.56
2018-04-28T05:56:20.463Z,19.60
2018-04-28T05:56:51.705Z,19.65
2018-04-28T05:57:22.904Z,19.68
2018-04-28T05:57:54.174Z,19.75
2018-04-28T05:58:25.420Z,19.76
2018-04-28T05:58:56.692Z,19.78
2018-04-28T05:59:27.930Z,19.77
2018-04-28T05:59:59.158Z,19.70
2018-04-28T06:00:30.381Z,19.68
2018-04-28T06:01:01.585Z,19.61
2018-04-28T06:01:32.797Z,19.59
2018-04-28T06:02:04.057Z,19.57
2018-04-28T06:02:35.265Z,19.60
2018-04-28T06:03:06.489Z,19.60
2018-04-28T06:03:37.707Z,19.60
2018-04-28T06:04:08.944Z,19.61
2018-04-28T06:04:41.877Z,19.63
2018-04-28T06:05:13.868Z,19.63
2018-04-28T06:05:45.099Z,19.59
2018-04-28T06:06:16.308Z,19.59
2018-04-28T06:06:47.531Z,19.59
2018-04-28T06:07:18.828Z,19.57
2018-04-28T06:07:50.044Z,19.57
2018-04-28T06:08:21.264Z,19.55
2018-04-28T06:08:52.470Z,19.59
2018-04-28T06:09:23.687Z,19.66
2018-04-28T06:09:54.879Z,19.70
2018-04-28T06:10:26.090Z,19.78
2018-04-28T06:10:57.333Z,19.83
2018-04-28T06:11:28.593Z,19.87
2018-04-28T06:11:59.817Z,19.92
2018-04-28T06:12:31.141Z,19.92
2018-04-28T06:13:02.353Z,19.93
2018-04-28T06:13:33.590Z,19.95
2018-04-28T06:14:04.817Z,19.97
2018-04-28T06:14:36.082Z,19.99
2018-04-28T06:15:09.043Z,20.04
2018-04-28T06:15:41.247Z,20.05
2018-04-28T06:16:12.509Z,20.09
2018-04-28T06:16:43.766Z,20.12
2018-04-28T06:17:14.984Z,20.17
2018-04-28T06:17:46.203Z,20.14
2018-04-28T06:18:17.409Z,20.16
2018-04-28T06:18:48.691Z,20.19
2018-04-28T06:19:19.896Z,20.17
2018-04-28T06:19:51.107Z,20.19
2018-04-28T06:20:22.356Z,20.19
2018-04-28T06:20:53.614Z,20.19
2018-04-28T06:21:24.833Z,20.13
2018-04-28T06:21:56.058Z,20.05
2018-04-28T06:22:27.283Z,20.05
2018-04-28T06:22:58.569Z,20.02
2018-04-28T06:23:29.840Z,20.08
2018-04-28T06:24:01.089Z,20.15
2018-04-28T06:24:32.316Z,20.23
2018-04-28T06:25:03.561Z,20.31
2018-04-28T06:25:34.768Z,20.38
2018-04-28T06:26:06.167Z,20.39
2018-04-28T06:26:37.219Z,20.42
2018-04-28T06:27:08.432Z,20.44
2018-04-28T06:27:39.645Z,20.45
2018-04-28T06:28:10.903Z,20.43
2018-04-28T06:28:42.135Z,20.31
2018-04-28T06:29:13.328Z,20.28
2018-04-28T06:29:44.548Z,20.22
2018-04-28T06:30:15.817Z,20.20
2018-04-28T06:30:47.059Z,20.18
2018-04-28T06:31:18.275Z,20.16
2018-04-28T06:31:49.513Z,19.97
2018-04-28T06:32:20.766Z,20.18
2018-04-28T06:32:51.989Z,20.24
2018-04-28T06:33:23.198Z,20.29
2018-04-28T06:33:54.408Z,20.30
2018-04-28T06:34:25.746Z,20.31
2018-04-28T06:34:56.953Z,20.36
2018-04-28T06:35:29.076Z,20.42
2018-04-28T06:36:00.295Z,20.42
2018-04-28T06:36:31.540Z,20.46
2018-04-28T06:37:02.746Z,20.49
2018-04-28T06:37:33.953Z,20.52
2018-04-28T06:38:05.188Z,20.51
2018-04-28T06:38:36.416Z,20.47
2018-04-28T06:39:07.636Z,20.35
2018-04-28T06:39:38.901Z,20.21
2018-04-28T06:40:10.113Z,20.21
2018-04-28T06:40:41.346Z,20.29
2018-04-28T06:41:12.689Z,20.30
2018-04-28T06:41:43.860Z,20.29
2018-04-28T06:42:15.078Z,20.30